sensor_id;sensor_type;location;lat;lon;timestamp;temperature;humidity
75838;SHT30;64480;52.040;113.502;2023-03-01T00:00:44;-10.96;47.35
75838;SHT30;64480;52.040;113.502;2023-03-01T00:03:52;-10.37;44.90
75838;SHT30;64480;52.040;113.502;2023-03-01T00:07:12;-9.61;43.65
75838;SHT30;64480;52.040;113.502;2023-03-01T00:10:29;-8.88;41.71
75838;SHT30;64480;52.040;113.502;2023-03-01T00:13:49;-8.48;40.06
75838;SHT30;64480;52.040;113.502;2023-03-01T00:17:07;-8.51;39.57
75838;SHT30;64480;52.040;113.502;2023-03-01T00:20:25;-8.36;38.01
75838;SHT30;64480;52.040;113.502;2023-03-01T00:23:44;-7.82;37.78
75838;SHT30;64480;52.040;113.502;2023-03-01T00:27:05;-7.62;37.28
75838;SHT30;64480;52.040;113.502;2023-03-01T00:30:22;-7.61;37.61
75838;SHT30;64480;52.040;113.502;2023-03-01T00:33:45;-7.15;36.86
75838;SHT30;64480;52.040;113.502;2023-03-01T00:37:15;-7.05;35.88
75838;SHT30;64480;52.040;113.502;2023-03-01T00:40:34;-8.23;37.15
75838;SHT30;64480;52.040;113.502;2023-03-01T00:43:54;-9.27;41.04
75838;SHT30;64480;52.040;113.502;2023-03-01T00:47:01;-9.88;42.15
75838;SHT30;64480;52.040;113.502;2023-03-01T00:50:20;-10.79;43.71
75838;SHT30;64480;52.040;113.502;2023-03-01T00:53:39;-11.90;46.32
75838;SHT30;64480;52.040;113.502;2023-03-01T00:56:57;-12.32;48.49
75838;SHT30;64480;52.040;113.502;2023-03-01T01:00:16;-12.46;50.35
75838;SHT30;64480;52.040;113.502;2023-03-01T01:03:45;-12.46;50.47
75838;SHT30;64480;52.040;113.502;2023-03-01T01:07:05;-12.50;51.53
75838;SHT30;64480;52.040;113.502;2023-03-01T01:10:25;-12.44;51.69
75838;SHT30;64480;52.040;113.502;2023-03-01T01:13:50;-12.35;51.20
75838;SHT30;64480;52.040;113.502;2023-03-01T01:17:14;-12.22;51.18
75838;SHT30;64480;52.040;113.502;2023-03-01T01:20:35;-12.20;50.51
75838;SHT30;64480;52.040;113.502;2023-03-01T01:23:57;-12.27;51.80
75838;SHT30;64480;52.040;113.502;2023-03-01T01:27:39;-12.53;51.67
75838;SHT30;64480;52.040;113.502;2023-03-01T01:30:58;-12.55;52.69
75838;SHT30;64480;52.040;113.502;2023-03-01T01:34:30;-12.57;53.06
75838;SHT30;64480;52.040;113.502;2023-03-01T01:38:05;-12.41;52.91
75838;SHT30;64480;52.040;113.502;2023-03-01T01:41:45;-12.00;52.35
75838;SHT30;64480;52.040;113.502;2023-03-01T01:45:35;-11.70;51.38
75838;SHT30;64480;52.040;113.502;2023-03-01T01:52:34;-11.36;50.95
75838;SHT30;64480;52.040;113.502;2023-03-01T01:55:57;-11.32;50.56
75838;SHT30;64480;52.040;113.502;2023-03-01T01:59:18;-11.04;50.62
75838;SHT30;64480;52.040;113.502;2023-03-01T02:02:43;-10.82;49.93
75838;SHT30;64480;52.040;113.502;2023-03-01T02:09:48;-10.76;49.39
75838;SHT30;64480;52.040;113.502;2023-03-01T02:13:10;-10.49;49.16
75838;SHT30;64480;52.040;113.502;2023-03-01T02:17:04;-10.25;48.96
75838;SHT30;64480;52.040;113.502;2023-03-01T02:20:27;-10.10;48.80
75838;SHT30;64480;52.040;113.502;2023-03-01T02:23:54;-9.96;48.76
75838;SHT30;64480;52.040;113.502;2023-03-01T02:27:15;-9.80;48.80
75838;SHT30;64480;52.040;113.502;2023-03-01T02:30:34;-9.61;48.91
75838;SHT30;64480;52.040;113.502;2023-03-01T02:33:55;-9.40;48.60
75838;SHT30;64480;52.040;113.502;2023-03-01T02:37:39;-9.06;48.16
75838;SHT30;64480;52.040;113.502;2023-03-01T02:40:58;-9.09;47.47
75838;SHT30;64480;52.040;113.502;2023-03-01T02:44:19;-9.06;47.36
75838;SHT30;64480;52.040;113.502;2023-03-01T02:47:38;-8.95;47.53
75838;SHT30;64480;52.040;113.502;2023-03-01T02:51:10;-8.64;47.50
75838;SHT30;64480;52.040;113.502;2023-03-01T02:54:51;-8.41;46.66
75838;SHT30;64480;52.040;113.502;2023-03-01T02:58:29;-8.22;45.51
75838;SHT30;64480;52.040;113.502;2023-03-01T03:01:57;-7.85;46.31
75838;SHT30;64480;52.040;113.502;2023-03-01T03:05:30;-7.68;44.79
75838;SHT30;64480;52.040;113.502;2023-03-01T03:08:48;-7.54;45.30
75838;SHT30;64480;52.040;113.502;2023-03-01T03:12:10;-7.30;44.89
75838;SHT30;64480;52.040;113.502;2023-03-01T03:18:50;-6.94;43.23
75838;SHT30;64480;52.040;113.502;2023-03-01T03:22:26;-6.78;42.94
75838;SHT30;64480;52.040;113.502;2023-03-01T03:25:55;-6.64;42.94
75838;SHT30;64480;52.040;113.502;2023-03-01T03:29:38;-6.47;42.76
75838;SHT30;64480;52.040;113.502;2023-03-01T03:32:59;-6.22;42.20
75838;SHT30;64480;52.040;113.502;2023-03-01T03:36:21;-6.08;41.00
75838;SHT30;64480;52.040;113.502;2023-03-01T03:39:28;-5.82;40.83
75838;SHT30;64480;52.040;113.502;2023-03-01T03:42:58;-5.43;39.93
75838;SHT30;64480;52.040;113.502;2023-03-01T03:46:12;-5.40;39.73
75838;SHT30;64480;52.040;113.502;2023-03-01T03:49:30;-5.18;40.41
75838;SHT30;64480;52.040;113.502;2023-03-01T03:52:47;-4.94;40.35
75838;SHT30;64480;52.040;113.502;2023-03-01T03:55:53;-4.79;39.66
75838;SHT30;64480;52.040;113.502;2023-03-01T03:59:11;-4.64;38.89
75838;SHT30;64480;52.040;113.502;2023-03-01T04:02:30;-4.48;38.50
75838;SHT30;64480;52.040;113.502;2023-03-01T04:05:48;-4.39;37.97
75838;SHT30;64480;52.040;113.502;2023-03-01T04:09:08;-4.29;37.46
75838;SHT30;64480;52.040;113.502;2023-03-01T04:12:27;-4.32;38.40
75838;SHT30;64480;52.040;113.502;2023-03-01T04:15:45;-3.94;38.00
75838;SHT30;64480;52.040;113.502;2023-03-01T04:19:02;-3.80;37.44
75838;SHT30;64480;52.040;113.502;2023-03-01T04:22:19;-3.79;37.72
75838;SHT30;64480;52.040;113.502;2023-03-01T04:26:02;-3.45;37.00
75838;SHT30;64480;52.040;113.502;2023-03-01T04:29:11;-3.24;36.92
75838;SHT30;64480;52.040;113.502;2023-03-01T04:32:21;-3.08;36.76
75838;SHT30;64480;52.040;113.502;2023-03-01T04:35:39;-2.84;36.37
75838;SHT30;64480;52.040;113.502;2023-03-01T04:38:56;-2.87;36.39
75838;SHT30;64480;52.040;113.502;2023-03-01T04:42:14;-2.83;36.15
75838;SHT30;64480;52.040;113.502;2023-03-01T04:45:33;-2.72;35.11
75838;SHT30;64480;52.040;113.502;2023-03-01T04:48:43;-3.15;35.57
75838;SHT30;64480;52.040;113.502;2023-03-01T04:51:53;-3.12;36.62
75838;SHT30;64480;52.040;113.502;2023-03-01T04:54:58;-3.14;36.01
75838;SHT30;64480;52.040;113.502;2023-03-01T04:58:12;-3.16;37.05
75838;SHT30;64480;52.040;113.502;2023-03-01T05:01:29;-2.93;36.04
75838;SHT30;64480;52.040;113.502;2023-03-01T05:04:44;-2.51;37.09
75838;SHT30;64480;52.040;113.502;2023-03-01T05:07:53;-2.30;35.55
75838;SHT30;64480;52.040;113.502;2023-03-01T05:11:11;-2.48;34.57
75838;SHT30;64480;52.040;113.502;2023-03-01T05:14:29;-2.40;35.96
75838;SHT30;64480;52.040;113.502;2023-03-01T05:17:37;-2.58;35.43
75838;SHT30;64480;52.040;113.502;2023-03-01T05:21:05;-2.24;36.14
75838;SHT30;64480;52.040;113.502;2023-03-01T05:24:22;-2.15;35.59
75838;SHT30;64480;52.040;113.502;2023-03-01T05:27:38;-2.04;35.88
75838;SHT30;64480;52.040;113.502;2023-03-01T05:30:42;-1.97;35.17
75838;SHT30;64480;52.040;113.502;2023-03-01T05:37:53;-1.80;34.65
75838;SHT30;64480;52.040;113.502;2023-03-01T05:54:20;-2.11;34.27
75838;SHT30;64480;52.040;113.502;2023-03-01T05:57:41;-2.63;33.85
75838;SHT30;64480;52.040;113.502;2023-03-01T06:01:10;-2.59;35.27
75838;SHT30;64480;52.040;113.502;2023-03-01T06:04:28;-2.30;35.95
75838;SHT30;64480;52.040;113.502;2023-03-01T06:07:45;-2.11;35.77
75838;SHT30;64480;52.040;113.502;2023-03-01T06:11:02;-2.14;34.94
75838;SHT30;64480;52.040;113.502;2023-03-01T06:14:19;-2.05;34.79
75838;SHT30;64480;52.040;113.502;2023-03-01T06:22:13;-2.01;35.69
75838;SHT30;64480;52.040;113.502;2023-03-01T06:25:27;-2.05;35.71
75838;SHT30;64480;52.040;113.502;2023-03-01T06:29:12;-1.80;34.85
75838;SHT30;64480;52.040;113.502;2023-03-01T06:33:04;-1.66;34.92
75838;SHT30;64480;52.040;113.502;2023-03-01T06:36:23;-1.85;34.75
75838;SHT30;64480;52.040;113.502;2023-03-01T06:39:41;-1.90;35.43
75838;SHT30;64480;52.040;113.502;2023-03-01T06:42:59;-1.69;35.83
75838;SHT30;64480;52.040;113.502;2023-03-01T06:46:18;-1.73;35.28
75838;SHT30;64480;52.040;113.502;2023-03-01T06:49:34;-1.59;34.89
75838;SHT30;64480;52.040;113.502;2023-03-01T06:52:56;-1.44;35.84
75838;SHT30;64480;52.040;113.502;2023-03-01T06:56:04;-1.42;35.92
75838;SHT30;64480;52.040;113.502;2023-03-01T06:59:24;-1.48;34.89
75838;SHT30;64480;52.040;113.502;2023-03-01T07:02:42;-1.52;35.54
75838;SHT30;64480;52.040;113.502;2023-03-01T07:05:49;-1.79;35.34
75838;SHT30;64480;52.040;113.502;2023-03-01T07:09:11;-1.79;35.78
75838;SHT30;64480;52.040;113.502;2023-03-01T07:12:28;-1.72;36.24
75838;SHT30;64480;52.040;113.502;2023-03-01T07:15:48;-1.63;35.94
75838;SHT30;64480;52.040;113.502;2023-03-01T07:18:57;-1.62;35.72
75838;SHT30;64480;52.040;113.502;2023-03-01T07:22:17;-1.76;36.55
75838;SHT30;64480;52.040;113.502;2023-03-01T07:25:35;-1.69;35.98
75838;SHT30;64480;52.040;113.502;2023-03-01T07:28:53;-1.51;35.37
75838;SHT30;64480;52.040;113.502;2023-03-01T07:32:08;-1.60;35.07
75838;SHT30;64480;52.040;113.502;2023-03-01T07:36:02;-1.60;35.46
75838;SHT30;64480;52.040;113.502;2023-03-01T07:43:20;-1.63;36.11
75838;SHT30;64480;52.040;113.502;2023-03-01T07:46:34;-1.54;36.26
75838;SHT30;64480;52.040;113.502;2023-03-01T07:49:52;-1.66;35.63
75838;SHT30;64480;52.040;113.502;2023-03-01T07:53:11;-1.52;36.20
75838;SHT30;64480;52.040;113.502;2023-03-01T07:56:20;-1.51;37.03
75838;SHT30;64480;52.040;113.502;2023-03-01T07:59:41;-1.49;36.41
75838;SHT30;64480;52.040;113.502;2023-03-01T08:03:04;-1.66;35.47
75838;SHT30;64480;52.040;113.502;2023-03-01T08:06:49;-1.93;37.12
75838;SHT30;64480;52.040;113.502;2023-03-01T08:17:29;-2.13;38.85
75838;SHT30;64480;52.040;113.502;2023-03-01T08:20:39;-2.15;38.45
75838;SHT30;64480;52.040;113.502;2023-03-01T08:24:04;-2.28;38.77
75838;SHT30;64480;52.040;113.502;2023-03-01T08:27:27;-2.17;38.87
75838;SHT30;64480;52.040;113.502;2023-03-01T08:30:32;-2.14;39.18
75838;SHT30;64480;52.040;113.502;2023-03-01T08:37:27;-2.05;39.66
75838;SHT30;64480;52.040;113.502;2023-03-01T08:41:08;-2.15;38.40
75838;SHT30;64480;52.040;113.502;2023-03-01T08:48:03;-2.04;39.02
75838;SHT30;64480;52.040;113.502;2023-03-01T08:51:37;-1.97;39.64
75838;SHT30;64480;52.040;113.502;2023-03-01T08:59:17;-2.11;39.41
75838;SHT30;64480;52.040;113.502;2023-03-01T09:02:37;-2.27;38.86
75838;SHT30;64480;52.040;113.502;2023-03-01T09:06:01;-2.41;39.21
75838;SHT30;64480;52.040;113.502;2023-03-01T09:09:21;-2.41;39.53
75838;SHT30;64480;52.040;113.502;2023-03-01T09:12:38;-2.37;40.03
75838;SHT30;64480;52.040;113.502;2023-03-01T09:15:55;-2.38;40.11
75838;SHT30;64480;52.040;113.502;2023-03-01T09:19:03;-2.37;40.73
75838;SHT30;64480;52.040;113.502;2023-03-01T09:22:25;-2.45;40.16
75838;SHT30;64480;52.040;113.502;2023-03-01T09:25:45;-2.56;40.17
75838;SHT30;64480;52.040;113.502;2023-03-01T09:29:03;-2.69;39.90
75838;SHT30;64480;52.040;113.502;2023-03-01T09:32:21;-2.76;40.30
75838;SHT30;64480;52.040;113.502;2023-03-01T09:35:38;-2.79;40.41
75838;SHT30;64480;52.040;113.502;2023-03-01T09:39:05;-2.91;40.56
75838;SHT30;64480;52.040;113.502;2023-03-01T09:42:24;-3.04;41.04
75838;SHT30;64480;52.040;113.502;2023-03-01T09:45:44;-3.09;41.41
75838;SHT30;64480;52.040;113.502;2023-03-01T09:49:17;-3.12;41.47
75838;SHT30;64480;52.040;113.502;2023-03-01T09:52:36;-3.19;41.78
75838;SHT30;64480;52.040;113.502;2023-03-01T10:03:26;-3.28;42.12
75838;SHT30;64480;52.040;113.502;2023-03-01T10:10:43;-3.34;42.19
75838;SHT30;64480;52.040;113.502;2023-03-01T10:17:51;-3.39;42.44
75838;SHT30;64480;52.040;113.502;2023-03-01T10:21:43;-3.45;42.82
75838;SHT30;64480;52.040;113.502;2023-03-01T10:25:04;-3.48;42.76
75838;SHT30;64480;52.040;113.502;2023-03-01T10:28:39;-3.58;43.08
75838;SHT30;64480;52.040;113.502;2023-03-01T10:32:04;-3.58;43.40
75838;SHT30;64480;52.040;113.502;2023-03-01T10:35:28;-3.67;43.28
75838;SHT30;64480;52.040;113.502;2023-03-01T10:38:54;-3.70;43.85
75838;SHT30;64480;52.040;113.502;2023-03-01T10:42:38;-3.60;44.09
75838;SHT30;64480;52.040;113.502;2023-03-01T10:45:57;-3.60;44.06
75838;SHT30;64480;52.040;113.502;2023-03-01T10:49:20;-3.63;43.54
75838;SHT30;64480;52.040;113.502;2023-03-01T10:52:40;-3.76;43.70
75838;SHT30;64480;52.040;113.502;2023-03-01T10:55:57;-3.81;43.86
75838;SHT30;64480;52.040;113.502;2023-03-01T11:03:17;-3.81;44.49
75838;SHT30;64480;52.040;113.502;2023-03-01T11:06:40;-3.77;44.70
75838;SHT30;64480;52.040;113.502;2023-03-01T11:09:58;-3.73;44.80
75838;SHT30;64480;52.040;113.502;2023-03-01T11:13:25;-3.67;44.24
75838;SHT30;64480;52.040;113.502;2023-03-01T11:16:43;-3.73;43.83
75838;SHT30;64480;52.040;113.502;2023-03-01T11:23:33;-3.62;44.44
75838;SHT30;64480;52.040;113.502;2023-03-01T11:26:55;-3.56;44.25
75838;SHT30;64480;52.040;113.502;2023-03-01T11:34:08;-3.48;43.85
75838;SHT30;64480;52.040;113.502;2023-03-01T11:44:54;-3.30;44.77
75838;SHT30;64480;52.040;113.502;2023-03-01T11:52:38;-3.19;45.12
75838;SHT30;64480;52.040;113.502;2023-03-01T12:03:28;-3.35;44.85
75838;SHT30;64480;52.040;113.502;2023-03-01T12:11:21;-3.36;44.23
75838;SHT30;64480;52.040;113.502;2023-03-01T12:18:40;-3.48;44.42
75838;SHT30;64480;52.040;113.502;2023-03-01T12:22:21;-3.43;45.06
75838;SHT30;64480;52.040;113.502;2023-03-01T12:50:53;-3.64;45.03
75838;SHT30;64480;52.040;113.502;2023-03-01T12:54:40;-3.60;44.61
75838;SHT30;64480;52.040;113.502;2023-03-01T13:13:40;-3.73;45.34
75838;SHT30;64480;52.040;113.502;2023-03-01T13:16:59;-3.63;45.23
75838;SHT30;64480;52.040;113.502;2023-03-01T13:20:13;-3.62;45.56
75838;SHT30;64480;52.040;113.502;2023-03-01T13:23:37;-3.76;45.16
75838;SHT30;64480;52.040;113.502;2023-03-01T13:34:06;-4.12;47.07
75838;SHT30;64480;52.040;113.502;2023-03-01T13:37:46;-4.19;47.09
75838;SHT30;64480;52.040;113.502;2023-03-01T13:41:24;-4.35;47.85
75838;SHT30;64480;52.040;113.502;2023-03-01T13:44:55;-4.45;48.29
75838;SHT30;64480;52.040;113.502;2023-03-01T13:48:26;-4.54;48.30
75838;SHT30;64480;52.040;113.502;2023-03-01T13:51:48;-4.70;48.80
75838;SHT30;64480;52.040;113.502;2023-03-01T13:55:20;-4.80;48.95
75838;SHT30;64480;52.040;113.502;2023-03-01T13:58:53;-4.97;49.29
75838;SHT30;64480;52.040;113.502;2023-03-01T14:02:12;-5.09;49.61
75838;SHT30;64480;52.040;113.502;2023-03-01T14:05:35;-5.28;49.97
75838;SHT30;64480;52.040;113.502;2023-03-01T14:09:18;-5.36;50.36
75838;SHT30;64480;52.040;113.502;2023-03-01T14:20:24;-5.26;50.49
75838;SHT30;64480;52.040;113.502;2023-03-01T14:23:32;-5.23;50.49
75838;SHT30;64480;52.040;113.502;2023-03-01T14:26:52;-5.22;49.91
75838;SHT30;64480;52.040;113.502;2023-03-01T14:30:27;-5.19;50.35
75838;SHT30;64480;52.040;113.502;2023-03-01T14:33:55;-5.19;50.02
75838;SHT30;64480;52.040;113.502;2023-03-01T14:40:44;-5.25;49.96
75838;SHT30;64480;52.040;113.502;2023-03-01T14:44:16;-5.26;49.94
75838;SHT30;64480;52.040;113.502;2023-03-01T14:47:37;-5.20;48.74
75838;SHT30;64480;52.040;113.502;2023-03-01T14:50:56;-5.09;48.13
75838;SHT30;64480;52.040;113.502;2023-03-01T14:57:49;-4.81;46.64
75838;SHT30;64480;52.040;113.502;2023-03-01T15:01:15;-4.77;46.68
75838;SHT30;64480;52.040;113.502;2023-03-01T15:04:35;-4.63;46.47
75838;SHT30;64480;52.040;113.502;2023-03-01T15:08:02;-4.43;45.31
75838;SHT30;64480;52.040;113.502;2023-03-01T15:11:24;-4.19;44.56
75838;SHT30;64480;52.040;113.502;2023-03-01T15:14:46;-4.04;44.28
75838;SHT30;64480;52.040;113.502;2023-03-01T15:18:37;-3.87;43.84
75838;SHT30;64480;52.040;113.502;2023-03-01T15:21:56;-3.87;44.04
75838;SHT30;64480;52.040;113.502;2023-03-01T15:25:21;-3.84;43.61
75838;SHT30;64480;52.040;113.502;2023-03-01T15:28:50;-3.84;43.75
75838;SHT30;64480;52.040;113.502;2023-03-01T15:32:34;-3.76;43.65
75838;SHT30;64480;52.040;113.502;2023-03-01T15:35:56;-3.73;43.36
75838;SHT30;64480;52.040;113.502;2023-03-01T15:43:21;-3.69;43.28
75838;SHT30;64480;52.040;113.502;2023-03-01T15:46:50;-3.59;43.12
75838;SHT30;64480;52.040;113.502;2023-03-01T15:50:19;-3.63;43.12
75838;SHT30;64480;52.040;113.502;2023-03-01T15:53:51;-3.64;43.21
75838;SHT30;64480;52.040;113.502;2023-03-01T15:57:14;-3.63;43.22
75838;SHT30;64480;52.040;113.502;2023-03-01T16:00:32;-3.67;43.71
75838;SHT30;64480;52.040;113.502;2023-03-01T16:03:50;-3.60;43.55
75838;SHT30;64480;52.040;113.502;2023-03-01T16:07:09;-3.59;43.50
75838;SHT30;64480;52.040;113.502;2023-03-01T16:10:27;-3.51;43.35
75838;SHT30;64480;52.040;113.502;2023-03-01T16:13:45;-3.46;43.28
75838;SHT30;64480;52.040;113.502;2023-03-01T16:17:09;-3.42;43.05
75838;SHT30;64480;52.040;113.502;2023-03-01T16:20:29;-3.43;43.37
75838;SHT30;64480;52.040;113.502;2023-03-01T16:23:48;-3.36;43.37
75838;SHT30;64480;52.040;113.502;2023-03-01T16:34:18;-3.24;43.05
75838;SHT30;64480;52.040;113.502;2023-03-01T16:37:41;-3.16;43.26
75838;SHT30;64480;52.040;113.502;2023-03-01T16:40:59;-3.16;43.28
75838;SHT30;64480;52.040;113.502;2023-03-01T16:44:17;-3.11;43.26
75838;SHT30;64480;52.040;113.502;2023-03-01T16:47:34;-3.08;43.27
75838;SHT30;64480;52.040;113.502;2023-03-01T16:51:01;-3.12;43.40
75838;SHT30;64480;52.040;113.502;2023-03-01T16:54:06;-3.03;43.14
75838;SHT30;64480;52.040;113.502;2023-03-01T16:57:25;-3.03;43.40
75838;SHT30;64480;52.040;113.502;2023-03-01T17:00:42;-3.04;43.34
75838;SHT30;64480;52.040;113.502;2023-03-01T17:03:59;-2.97;43.51
75838;SHT30;64480;52.040;113.502;2023-03-01T17:07:19;-2.90;43.30
75838;SHT30;64480;52.040;113.502;2023-03-01T17:10:42;-2.87;43.29
75838;SHT30;64480;52.040;113.502;2023-03-01T17:14:01;-2.88;43.58
75838;SHT30;64480;52.040;113.502;2023-03-01T17:25:14;-2.90;43.87
75838;SHT30;64480;52.040;113.502;2023-03-01T17:28:33;-2.88;43.99
75838;SHT30;64480;52.040;113.502;2023-03-01T17:32:33;-2.88;44.02
75838;SHT30;64480;52.040;113.502;2023-03-01T17:35:53;-2.87;43.79
75838;SHT30;64480;52.040;113.502;2023-03-01T17:39:13;-2.86;44.03
75838;SHT30;64480;52.040;113.502;2023-03-01T17:42:32;-2.84;44.09
75838;SHT30;64480;52.040;113.502;2023-03-01T17:45:45;-2.87;44.15
75838;SHT30;64480;52.040;113.502;2023-03-01T17:49:04;-2.87;44.42
75838;SHT30;64480;52.040;113.502;2023-03-01T17:53:06;-2.88;44.61
75838;SHT30;64480;52.040;113.502;2023-03-01T17:56:25;-2.93;44.93
75838;SHT30;64480;52.040;113.502;2023-03-01T17:59:34;-2.94;44.94
75838;SHT30;64480;52.040;113.502;2023-03-01T18:02:59;-2.97;45.06
75838;SHT30;64480;52.040;113.502;2023-03-01T18:06:11;-2.98;45.12
75838;SHT30;64480;52.040;113.502;2023-03-01T18:09:32;-3.03;45.29
75838;SHT30;64480;52.040;113.502;2023-03-01T18:12:53;-2.97;45.94
75838;SHT30;64480;52.040;113.502;2023-03-01T18:16:17;-2.98;45.58
75838;SHT30;64480;52.040;113.502;2023-03-01T18:19:35;-2.97;45.68
75838;SHT30;64480;52.040;113.502;2023-03-01T18:22:56;-2.98;45.98
75838;SHT30;64480;52.040;113.502;2023-03-01T18:26:14;-3.03;46.31
75838;SHT30;64480;52.040;113.502;2023-03-01T18:29:32;-3.03;46.57
75838;SHT30;64480;52.040;113.502;2023-03-01T18:32:50;-3.04;46.86
75838;SHT30;64480;52.040;113.502;2023-03-01T18:36:25;-3.07;47.01
75838;SHT30;64480;52.040;113.502;2023-03-01T18:39:45;-3.05;47.32
75838;SHT30;64480;52.040;113.502;2023-03-01T18:43:11;-3.09;47.66
75838;SHT30;64480;52.040;113.502;2023-03-01T18:46:31;-3.11;48.10
75838;SHT30;64480;52.040;113.502;2023-03-01T18:49:50;-3.12;48.30
75838;SHT30;64480;52.040;113.502;2023-03-01T18:53:09;-3.15;48.73
75838;SHT30;64480;52.040;113.502;2023-03-01T18:56:29;-3.21;48.97
75838;SHT30;64480;52.040;113.502;2023-03-01T18:59:54;-3.19;49.24
75838;SHT30;64480;52.040;113.502;2023-03-01T19:03:27;-3.24;49.41
75838;SHT30;64480;52.040;113.502;2023-03-01T19:06:46;-3.25;49.91
75838;SHT30;64480;52.040;113.502;2023-03-01T19:10:04;-3.21;50.29
75838;SHT30;64480;52.040;113.502;2023-03-01T19:13:25;-3.19;50.19
75838;SHT30;64480;52.040;113.502;2023-03-01T19:16:51;-3.22;50.50
75838;SHT30;64480;52.040;113.502;2023-03-01T19:20:12;-3.18;50.47
75838;SHT30;64480;52.040;113.502;2023-03-01T19:23:34;-3.19;50.49
75838;SHT30;64480;52.040;113.502;2023-03-01T19:26:53;-3.25;50.70
75838;SHT30;64480;52.040;113.502;2023-03-01T19:30:14;-3.27;50.86
75838;SHT30;64480;52.040;113.502;2023-03-01T19:33:35;-3.24;51.13
75838;SHT30;64480;52.040;113.502;2023-03-01T19:36:56;-3.24;51.16
75838;SHT30;64480;52.040;113.502;2023-03-01T19:40:14;-3.25;51.30
75838;SHT30;64480;52.040;113.502;2023-03-01T19:43:36;-3.32;51.56
75838;SHT30;64480;52.040;113.502;2023-03-01T19:46:58;-3.34;51.79
75838;SHT30;64480;52.040;113.502;2023-03-01T19:50:15;-3.39;51.91
75838;SHT30;64480;52.040;113.502;2023-03-01T19:53:37;-3.41;51.97
75838;SHT30;64480;52.040;113.502;2023-03-01T19:56:54;-3.41;52.22
75838;SHT30;64480;52.040;113.502;2023-03-01T20:00:13;-3.43;52.33
75838;SHT30;64480;52.040;113.502;2023-03-01T20:03:33;-3.43;52.50
75838;SHT30;64480;52.040;113.502;2023-03-01T20:06:47;-3.43;52.63
75838;SHT30;64480;52.040;113.502;2023-03-01T20:10:05;-3.38;52.43
75838;SHT30;64480;52.040;113.502;2023-03-01T20:13:32;-3.32;52.22
75838;SHT30;64480;52.040;113.502;2023-03-01T20:16:49;-3.39;52.17
75838;SHT30;64480;52.040;113.502;2023-03-01T20:20:05;-3.35;52.01
75838;SHT30;64480;52.040;113.502;2023-03-01T20:23:29;-3.35;51.95
75838;SHT30;64480;52.040;113.502;2023-03-01T20:26:47;-3.36;52.04
75838;SHT30;64480;52.040;113.502;2023-03-01T20:30:09;-3.39;52.03
75838;SHT30;64480;52.040;113.502;2023-03-01T20:33:26;-3.36;52.05
75838;SHT30;64480;52.040;113.502;2023-03-01T20:36:43;-3.36;52.12
75838;SHT30;64480;52.040;113.502;2023-03-01T20:40:00;-3.42;52.15
75838;SHT30;64480;52.040;113.502;2023-03-01T20:43:16;-3.43;52.19
75838;SHT30;64480;52.040;113.502;2023-03-01T20:46:36;-3.48;52.32
75838;SHT30;64480;52.040;113.502;2023-03-01T20:49:54;-3.48;52.38
75838;SHT30;64480;52.040;113.502;2023-03-01T20:53:14;-3.48;52.48
75838;SHT30;64480;52.040;113.502;2023-03-01T20:56:33;-3.53;52.59
75838;SHT30;64480;52.040;113.502;2023-03-01T20:59:52;-3.59;52.87
75838;SHT30;64480;52.040;113.502;2023-03-01T21:03:10;-3.59;53.03
75838;SHT30;64480;52.040;113.502;2023-03-01T21:06:38;-3.64;53.23
75838;SHT30;64480;52.040;113.502;2023-03-01T21:09:59;-3.69;53.35
75838;SHT30;64480;52.040;113.502;2023-03-01T21:13:19;-3.67;53.27
75838;SHT30;64480;52.040;113.502;2023-03-01T21:16:36;-3.69;53.29
75838;SHT30;64480;52.040;113.502;2023-03-01T21:19:58;-3.66;53.54
75838;SHT30;64480;52.040;113.502;2023-03-01T21:23:19;-3.70;53.52
75838;SHT30;64480;52.040;113.502;2023-03-01T21:26:38;-3.66;53.63
75838;SHT30;64480;52.040;113.502;2023-03-01T21:29:56;-3.67;53.63
75838;SHT30;64480;52.040;113.502;2023-03-01T21:33:15;-3.63;53.72
75838;SHT30;64480;52.040;113.502;2023-03-01T21:36:33;-3.66;53.89
75838;SHT30;64480;52.040;113.502;2023-03-01T21:39:51;-3.66;53.89
75838;SHT30;64480;52.040;113.502;2023-03-01T21:43:09;-3.64;53.91
75838;SHT30;64480;52.040;113.502;2023-03-01T21:46:28;-3.70;54.10
75838;SHT30;64480;52.040;113.502;2023-03-01T21:53:57;-3.67;54.44
75838;SHT30;64480;52.040;113.502;2023-03-01T21:57:14;-3.63;54.79
75838;SHT30;64480;52.040;113.502;2023-03-01T22:00:34;-3.56;54.87
75838;SHT30;64480;52.040;113.502;2023-03-01T22:04:01;-3.58;54.64
75838;SHT30;64480;52.040;113.502;2023-03-01T22:07:46;-3.66;54.73
75838;SHT30;64480;52.040;113.502;2023-03-01T22:11:29;-3.71;55.09
75838;SHT30;64480;52.040;113.502;2023-03-01T22:15:11;-3.74;55.09
75838;SHT30;64480;52.040;113.502;2023-03-01T22:26:44;-3.81;55.90
75838;SHT30;64480;52.040;113.502;2023-03-01T22:30:11;-3.81;56.21
75838;SHT30;64480;52.040;113.502;2023-03-01T22:33:37;-3.87;56.52
75838;SHT30;64480;52.040;113.502;2023-03-01T22:36:58;-3.90;56.68
75838;SHT30;64480;52.040;113.502;2023-03-01T22:40:19;-3.98;57.18
75838;SHT30;64480;52.040;113.502;2023-03-01T22:43:39;-3.80;57.24
75838;SHT30;64480;52.040;113.502;2023-03-01T22:47:39;-3.69;56.47
75838;SHT30;64480;52.040;113.502;2023-03-01T22:51:29;-3.70;56.65
75838;SHT30;64480;52.040;113.502;2023-03-01T22:55:12;-3.63;56.59
75838;SHT30;64480;52.040;113.502;2023-03-01T22:58:35;-3.60;56.06
75838;SHT30;64480;52.040;113.502;2023-03-01T23:01:58;-3.53;56.36
75838;SHT30;64480;52.040;113.502;2023-03-01T23:05:15;-3.56;56.12
75838;SHT30;64480;52.040;113.502;2023-03-01T23:08:41;-3.48;56.17
75838;SHT30;64480;52.040;113.502;2023-03-01T23:11:59;-3.46;56.05
75838;SHT30;64480;52.040;113.502;2023-03-01T23:15:19;-3.43;56.42
75838;SHT30;64480;52.040;113.502;2023-03-01T23:19:27;-3.30;55.73
75838;SHT30;64480;52.040;113.502;2023-03-01T23:23:07;-3.15;55.44
75838;SHT30;64480;52.040;113.502;2023-03-01T23:26:30;-3.08;55.18
75838;SHT30;64480;52.040;113.502;2023-03-01T23:30:04;-3.01;55.11
75838;SHT30;64480;52.040;113.502;2023-03-01T23:33:12;-2.84;54.60
75838;SHT30;64480;52.040;113.502;2023-03-01T23:36:32;-2.72;54.41
75838;SHT30;64480;52.040;113.502;2023-03-01T23:40:25;-2.58;54.02
75838;SHT30;64480;52.040;113.502;2023-03-01T23:44:17;-2.34;53.29
75838;SHT30;64480;52.040;113.502;2023-03-01T23:47:37;-2.11;52.63
75838;SHT30;64480;52.040;113.502;2023-03-01T23:51:05;-1.34;51.17
75838;SHT30;64480;52.040;113.502;2023-03-01T23:54:25;-0.38;47.83
75838;SHT30;64480;52.040;113.502;2023-03-01T23:57:50;0.46;45.72
